createdAt,value
2018-02-04T00:01:29.410Z,1.08
2018-02-04T00:04:00.197Z,1.04
2018-02-04T00:06:30.980Z,1.07
2018-02-04T00:09:01.772Z,1.10
2018-02-04T00:11:32.521Z,1.20
2018-02-04T00:14:03.277Z,1.20
2018-02-04T00:16:34.053Z,1.15
2018-02-04T00:19:04.845Z,1.22
2018-02-04T00:21:35.604Z,1.26
2018-02-04T00:24:06.344Z,1.29
2018-02-04T00:26:37.088Z,1.30
2018-02-04T00:29:07.872Z,1.31
2018-02-04T00:31:38.619Z,1.31
2018-02-04T00:34:09.373Z,1.31
2018-02-04T00:36:40.125Z,1.28
2018-02-04T00:39:10.893Z,1.25
2018-02-04T00:41:41.657Z,1.20
2018-02-04T00:44:12.409Z,1.29
2018-02-04T00:46:43.245Z,1.28
2018-02-04T00:49:13.996Z,1.24
2018-02-04T00:51:44.732Z,1.23
2018-02-04T00:54:15.464Z,1.17
2018-02-04T00:56:46.238Z,1.21
2018-02-04T00:59:17.031Z,1.19
2018-02-04T01:01:47.800Z,1.21
2018-02-04T01:04:18.547Z,1.20
2018-02-04T01:06:49.341Z,1.17
2018-02-04T01:09:20.092Z,1.09
2018-02-04T01:11:50.862Z,1.07
2018-02-04T01:14:21.637Z,1.07
2018-02-04T01:16:52.403Z,1.07
2018-02-04T01:19:23.224Z,1.01
2018-02-04T01:21:53.969Z,0.95
2018-02-04T01:24:24.708Z,0.86
2018-02-04T01:26:55.473Z,0.85
2018-02-04T01:29:26.232Z,0.86
2018-02-04T01:31:56.996Z,0.87
2018-02-04T01:34:27.740Z,0.83
2018-02-04T01:36:58.544Z,0.87
2018-02-04T01:39:29.281Z,0.89
2018-02-04T01:42:00.078Z,0.81
2018-02-04T01:44:30.817Z,0.80
2018-02-04T01:47:01.573Z,0.89
2018-02-04T01:49:32.317Z,0.85
2018-02-04T01:52:03.083Z,0.78
2018-02-04T01:54:33.844Z,0.77
2018-02-04T01:57:04.623Z,0.76
2018-02-04T01:59:35.368Z,0.76
2018-02-04T02:02:06.096Z,0.69
2018-02-04T02:04:36.849Z,0.60
2018-02-04T02:07:07.637Z,0.61
2018-02-04T02:09:38.391Z,0.63
2018-02-04T02:12:09.157Z,0.69
2018-02-04T02:14:39.912Z,0.61
2018-02-04T02:17:10.709Z,0.56
2018-02-04T02:19:48.365Z,0.51
2018-02-04T02:22:19.179Z,0.53
2018-02-04T02:24:49.957Z,0.52
2018-02-04T02:27:20.744Z,0.55
2018-02-04T02:29:51.573Z,0.64
2018-02-04T02:32:22.372Z,0.71
2018-02-04T02:34:53.133Z,0.71
2018-02-04T02:37:23.990Z,0.75
2018-02-04T02:39:54.744Z,0.72
2018-02-04T02:42:25.517Z,0.66
2018-02-04T02:44:56.263Z,0.61
2018-02-04T02:47:27.153Z,0.62
2018-02-04T02:49:57.977Z,0.55
2018-02-04T02:52:28.767Z,0.53
2018-02-04T02:54:59.553Z,0.48
2018-02-04T02:57:30.343Z,0.52
2018-02-04T03:00:01.122Z,0.56
2018-02-04T03:02:31.897Z,0.55
2018-02-04T03:05:02.673Z,0.55
2018-02-04T03:07:34.543Z,0.59
2018-02-04T03:10:05.360Z,0.52
2018-02-04T03:12:36.146Z,0.52
2018-02-04T03:15:06.893Z,0.47
2018-02-04T03:17:37.670Z,0.35
2018-02-04T03:20:08.450Z,0.25
2018-02-04T03:22:39.232Z,0.21
2018-02-04T03:25:09.995Z,0.22
2018-02-04T03:27:40.824Z,0.38
2018-02-04T03:30:11.605Z,0.40
2018-02-04T03:32:42.392Z,0.33
2018-02-04T03:35:13.152Z,0.36
2018-02-04T03:37:43.925Z,0.45
2018-02-04T03:40:14.668Z,0.43
2018-02-04T03:42:45.451Z,0.42
2018-02-04T03:45:16.226Z,0.44
2018-02-04T03:47:47.006Z,0.50
2018-02-04T03:50:17.752Z,0.42
2018-02-04T03:52:48.538Z,0.32
2018-02-04T03:55:19.293Z,0.29
2018-02-04T03:57:50.077Z,0.20
2018-02-04T04:00:20.851Z,0.10
2018-02-04T04:02:51.632Z,0.13
2018-02-04T04:05:22.404Z,0.10
2018-02-04T04:07:53.166Z,0.04
2018-02-04T04:10:23.915Z,0.03
2018-02-04T04:12:54.708Z,-0.03
2018-02-04T04:15:25.453Z,-0.03
2018-02-04T04:17:56.217Z,0.01
2018-02-04T04:20:26.953Z,0.21
2018-02-04T04:22:57.712Z,0.24
2018-02-04T04:25:28.456Z,0.20
2018-02-04T04:27:59.381Z,0.20
2018-02-04T04:30:30.165Z,0.14
2018-02-04T04:33:00.925Z,0.08
2018-02-04T04:35:31.676Z,-0.03
2018-02-04T04:38:02.419Z,-0.06
2018-02-04T04:40:33.159Z,-0.03
2018-02-04T04:43:03.924Z,-0.08
2018-02-04T04:45:34.658Z,-0.12
2018-02-04T04:48:05.425Z,-0.18
2018-02-04T04:50:36.186Z,-0.22
2018-02-04T04:53:06.940Z,-0.28
2018-02-04T04:55:37.753Z,-0.24
2018-02-04T04:58:08.520Z,-0.17
2018-02-04T05:00:39.278Z,-0.10
2018-02-04T05:03:10.063Z,-0.09
2018-02-04T05:05:40.831Z,-0.08
2018-02-04T05:08:11.626Z,-0.04
2018-02-04T05:10:42.377Z,-0.17
2018-02-04T05:13:13.144Z,0.00
2018-02-04T05:15:43.912Z,-0.07
2018-02-04T05:18:14.747Z,-0.10
2018-02-04T05:20:45.508Z,-0.17
2018-02-04T05:23:16.271Z,-0.20
2018-02-04T05:25:47.012Z,-0.23
2018-02-04T05:28:17.785Z,-0.30
2018-02-04T05:30:48.560Z,-0.41
2018-02-04T05:33:19.337Z,-0.43
2018-02-04T05:35:50.106Z,-0.52
2018-02-04T05:38:20.874Z,-0.59
2018-02-04T05:40:51.644Z,-0.77
2018-02-04T05:43:22.408Z,-0.79
2018-02-04T05:45:53.232Z,-0.86
2018-02-04T05:48:24.029Z,-0.93
2018-02-04T05:50:54.808Z,-0.71
2018-02-04T05:53:25.616Z,-0.65
2018-02-04T05:55:56.411Z,-0.71
2018-02-04T05:58:27.193Z,-0.68
2018-02-04T06:00:57.953Z,-0.70
2018-02-04T06:03:28.725Z,-0.76
2018-02-04T06:05:59.480Z,-0.73
2018-02-04T06:08:30.258Z,-0.70
2018-02-04T06:11:01.072Z,-0.68
2018-02-04T06:13:31.850Z,-0.67
2018-02-04T06:16:02.593Z,-0.50
2018-02-04T06:18:33.336Z,-0.47
2018-02-04T06:21:04.107Z,-0.58
2018-02-04T06:23:34.898Z,-0.70
2018-02-04T06:26:05.660Z,-0.60
2018-02-04T06:28:36.437Z,-0.54
2018-02-04T06:31:07.184Z,-0.57
2018-02-04T06:33:38.021Z,-0.53
2018-02-04T06:36:08.771Z,-0.43
2018-02-04T06:38:39.520Z,-0.47
2018-02-04T06:41:10.277Z,-0.50
2018-02-04T06:43:41.052Z,-0.51
2018-02-04T06:48:49.353Z,-0.48
2018-02-04T06:51:20.091Z,-0.48
2018-02-04T06:53:50.982Z,-0.37
2018-02-04T06:56:21.746Z,-0.21
2018-02-04T06:58:52.520Z,-0.10
2018-02-04T07:01:23.287Z,-0.05
2018-02-04T07:03:54.135Z,0.00
2018-02-04T07:06:24.906Z,0.15
2018-02-04T07:08:55.676Z,0.32
2018-02-04T07:11:26.430Z,0.42
2018-02-04T07:13:57.310Z,0.42
2018-02-04T07:16:28.084Z,0.46
2018-02-04T07:18:58.866Z,0.49
2018-02-04T07:21:29.699Z,0.64
2018-02-04T07:24:00.478Z,0.69
2018-02-04T07:26:31.216Z,0.73
2018-02-04T07:29:09.013Z,0.70
2018-02-04T07:31:39.756Z,0.63
2018-02-04T07:34:10.532Z,0.69
2018-02-04T07:36:41.281Z,0.75
2018-02-04T07:39:12.064Z,0.74
2018-02-04T07:41:42.843Z,0.69
2018-02-04T07:44:14.345Z,0.77
2018-02-04T07:46:45.136Z,0.87
2018-02-04T07:49:15.917Z,0.87
2018-02-04T07:51:46.664Z,0.88
2018-02-04T07:54:17.445Z,0.98
2018-02-04T07:56:48.224Z,0.95
2018-02-04T07:59:19.047Z,0.94
2018-02-04T08:01:49.865Z,1.01
2018-02-04T08:04:20.656Z,0.99
2018-02-04T08:06:51.420Z,0.93
2018-02-04T08:09:22.217Z,1.11
2018-02-04T08:11:52.979Z,1.11
2018-02-04T08:14:23.837Z,1.16
2018-02-04T08:16:54.618Z,1.20
2018-02-04T08:19:25.407Z,1.26
2018-02-04T08:21:56.194Z,1.30
2018-02-04T08:24:27.001Z,1.23
2018-02-04T08:26:57.801Z,1.33
2018-02-04T08:29:28.666Z,1.39
2018-02-04T08:31:59.474Z,1.48
2018-02-04T08:34:30.260Z,1.49
2018-02-04T08:37:01.043Z,1.46
2018-02-04T08:39:31.862Z,1.49
2018-02-04T08:57:20.395Z,1.45
2018-02-04T08:59:51.155Z,1.47
2018-02-04T09:02:21.945Z,1.74
2018-02-04T09:04:52.721Z,1.78
2018-02-04T09:07:23.500Z,1.90
2018-02-04T09:09:54.252Z,1.98
2018-02-04T09:12:25.069Z,1.91
2018-02-04T09:14:55.808Z,1.94
2018-02-04T09:17:26.576Z,1.94
2018-02-04T09:19:57.312Z,2.05
2018-02-04T09:22:28.210Z,2.00
2018-02-04T09:24:59.020Z,2.10
2018-02-04T09:27:29.884Z,2.14
2018-02-04T09:30:00.661Z,2.06
2018-02-04T09:32:31.546Z,2.05
2018-02-04T09:35:02.351Z,2.07
2018-02-04T09:37:33.239Z,2.26
2018-02-04T09:40:05.112Z,2.27
2018-02-04T09:42:36.908Z,2.32
2018-02-04T09:45:07.672Z,2.09
2018-02-04T09:47:38.592Z,2.21
2018-02-04T09:50:09.376Z,2.27
2018-02-04T09:52:40.151Z,2.38
2018-02-04T09:55:10.961Z,2.50
2018-02-04T09:57:41.750Z,2.55
2018-02-04T10:00:12.495Z,2.68
2018-02-04T10:02:43.325Z,2.94
2018-02-04T10:05:14.088Z,2.77
2018-02-04T10:07:44.844Z,2.84
2018-02-04T10:10:15.574Z,2.93
2018-02-04T10:12:46.347Z,2.88
2018-02-04T10:15:17.097Z,3.09
2018-02-04T10:17:47.872Z,3.18
2018-02-04T10:20:18.616Z,3.32
2018-02-04T10:22:49.367Z,3.56
2018-02-04T10:25:20.127Z,3.74
2018-02-04T10:27:50.877Z,3.40
2018-02-04T10:30:21.644Z,3.44
2018-02-04T10:32:52.396Z,3.80
2018-02-04T10:35:23.149Z,3.94
2018-02-04T10:37:53.887Z,3.78
2018-02-04T10:40:24.656Z,3.87
2018-02-04T10:42:55.438Z,4.03
2018-02-04T10:45:26.200Z,4.18
2018-02-04T10:47:56.962Z,4.12
2018-02-04T10:50:27.724Z,3.74
2018-02-04T10:52:58.500Z,3.65
2018-02-04T10:55:29.253Z,3.63
2018-02-04T10:58:00.027Z,3.56
2018-02-04T11:00:30.804Z,3.91
2018-02-04T11:03:01.560Z,3.92
2018-02-04T11:05:32.308Z,4.09
2018-02-04T11:08:03.081Z,4.21
2018-02-04T11:10:33.872Z,4.03
2018-02-04T11:13:04.669Z,3.59
2018-02-04T11:15:35.460Z,3.78
2018-02-04T11:18:06.244Z,3.85
2018-02-04T11:20:37.055Z,3.56
2018-02-04T11:23:07.848Z,3.60
2018-02-04T11:25:39.652Z,3.59
2018-02-04T11:28:10.417Z,3.39
2018-02-04T11:30:41.198Z,3.42
2018-02-04T11:33:11.968Z,3.40
2018-02-04T11:35:42.736Z,3.14
2018-02-04T11:38:13.520Z,3.28
2018-02-04T11:40:44.296Z,3.31
2018-02-04T11:43:15.044Z,2.98
2018-02-04T11:45:45.832Z,2.82
2018-02-04T11:48:16.605Z,2.87
2018-02-04T11:50:47.424Z,2.98
2018-02-04T11:53:18.273Z,3.12
2018-02-04T11:55:49.068Z,3.21
2018-02-04T11:58:19.830Z,3.28
2018-02-04T12:00:50.640Z,3.12
2018-02-04T12:03:21.429Z,3.02
2018-02-04T12:05:52.224Z,2.88
2018-02-04T12:08:22.999Z,3.20
2018-02-04T12:10:53.771Z,3.76
2018-02-04T12:13:26.513Z,3.78
2018-02-04T12:15:57.280Z,4.04
2018-02-04T12:18:28.021Z,4.48
2018-02-04T12:20:58.784Z,4.39
2018-02-04T12:23:29.558Z,4.34
2018-02-04T12:26:00.335Z,4.63
2018-02-04T12:28:31.096Z,5.03
2018-02-04T12:31:01.857Z,5.49
2018-02-04T12:33:32.613Z,5.35
2018-02-04T12:36:03.383Z,5.31
2018-02-04T12:38:34.120Z,5.26
2018-02-04T12:41:04.937Z,5.27
2018-02-04T12:43:35.705Z,4.74
2018-02-04T12:46:06.470Z,4.33
2018-02-04T12:48:37.216Z,4.45
2018-02-04T12:51:08.013Z,4.69
2018-02-04T12:53:38.809Z,4.64
2018-02-04T12:56:09.664Z,4.99
2018-02-04T12:58:40.399Z,5.21
2018-02-04T13:04:09.309Z,4.29
2018-02-04T13:06:40.130Z,4.32
2018-02-04T13:09:12.932Z,4.54
2018-02-04T13:11:43.699Z,4.70
2018-02-04T13:14:14.430Z,4.81
2018-02-04T13:16:45.232Z,4.33
2018-02-04T13:19:16.007Z,3.88
2018-02-04T13:21:46.833Z,3.97
2018-02-04T13:24:17.584Z,4.19
2018-02-04T13:26:48.358Z,4.05
2018-02-04T13:29:19.119Z,3.58
2018-02-04T13:31:49.884Z,3.69
2018-02-04T13:34:20.725Z,3.97
2018-02-04T13:36:51.476Z,3.87
2018-02-04T13:39:22.256Z,3.88
2018-02-04T13:41:53.027Z,3.91
2018-02-04T13:44:23.785Z,3.85
2018-02-04T13:46:54.556Z,3.57
2018-02-04T13:49:25.314Z,3.58
2018-02-04T13:51:56.096Z,3.61
2018-02-04T13:54:27.148Z,3.65
2018-02-04T13:56:57.976Z,3.80
2018-02-04T13:59:28.740Z,3.99
2018-02-04T14:01:59.489Z,4.64
2018-02-04T14:04:30.244Z,4.98
2018-02-04T14:07:01.121Z,4.69
2018-02-04T14:09:31.869Z,4.07
2018-02-04T14:12:02.667Z,3.96
2018-02-04T14:14:33.523Z,4.32
2018-02-04T14:17:04.363Z,5.18
2018-02-04T14:19:35.113Z,5.72
2018-02-04T14:22:05.893Z,5.02
2018-02-04T14:24:36.652Z,4.79
2018-02-04T14:27:07.440Z,4.20
2018-02-04T14:29:38.195Z,3.93
2018-02-04T14:32:09.044Z,3.98
2018-02-04T14:34:39.793Z,3.79
2018-02-04T14:37:10.581Z,3.75
2018-02-04T14:39:43.333Z,3.48
2018-02-04T14:42:14.144Z,3.46
2018-02-04T14:44:44.928Z,3.18
2018-02-04T14:47:15.689Z,3.13
2018-02-04T14:49:46.438Z,2.95
2018-02-04T14:52:17.240Z,2.79
2018-02-04T14:54:47.974Z,2.76
2018-02-04T14:57:18.732Z,2.81
2018-02-04T14:59:49.500Z,2.79
2018-02-04T15:02:20.261Z,2.69
2018-02-04T15:04:51.022Z,2.65
2018-02-04T15:07:21.816Z,2.59
2018-02-04T15:09:52.597Z,2.54
2018-02-04T15:12:23.416Z,2.44
2018-02-04T15:14:54.184Z,2.43
2018-02-04T15:17:24.933Z,2.46
2018-02-04T15:19:55.717Z,2.40
2018-02-04T15:22:26.488Z,2.33
2018-02-04T15:24:57.267Z,2.34
2018-02-04T15:27:28.044Z,2.24
2018-02-04T15:29:58.803Z,2.24
2018-02-04T15:32:29.576Z,2.20
2018-02-04T15:35:01.352Z,2.09
2018-02-04T15:37:32.105Z,1.92
2018-02-04T15:40:02.946Z,1.83
2018-02-04T15:42:33.704Z,1.78
2018-02-04T15:45:04.470Z,1.68
2018-02-04T15:47:35.253Z,1.70
2018-02-04T15:50:06.159Z,1.62
2018-02-04T15:52:36.891Z,1.50
2018-02-04T15:55:08.692Z,1.36
2018-02-04T15:57:40.515Z,1.25
2018-02-04T16:00:11.281Z,1.05
2018-02-04T16:02:42.045Z,1.03
2018-02-04T16:05:13.017Z,0.96
2018-02-04T16:07:43.841Z,1.01
2018-02-04T16:10:14.617Z,1.06
2018-02-04T16:12:45.342Z,1.05
2018-02-04T16:15:16.124Z,0.96
2018-02-04T16:17:46.975Z,0.87
2018-02-04T16:20:17.731Z,0.85
2018-02-04T16:22:55.547Z,0.71
2018-02-04T16:25:26.355Z,0.64
2018-02-04T16:27:57.092Z,0.56
2018-02-04T16:30:27.853Z,0.46
2018-02-04T16:32:58.651Z,0.30
2018-02-04T16:50:54.806Z,-0.40
2018-02-04T16:53:25.570Z,-0.47
2018-02-04T16:55:56.393Z,-0.45
2018-02-04T16:58:27.149Z,-0.40
2018-02-04T17:00:57.900Z,-0.32
2018-02-04T17:03:28.650Z,-0.30
2018-02-04T17:06:00.620Z,-0.26
2018-02-04T17:08:31.409Z,-0.27
2018-02-04T17:11:02.272Z,-0.15
2018-02-04T17:13:32.999Z,-0.05
2018-02-04T17:16:03.804Z,0.08
2018-02-04T17:18:34.602Z,0.04
2018-02-04T17:21:05.429Z,0.07
2018-02-04T17:23:36.241Z,0.06
2018-02-04T17:26:14.142Z,0.02
2018-02-04T17:28:44.915Z,0.08
2018-02-04T17:31:15.689Z,0.02
2018-02-04T17:33:46.452Z,0.02
2018-02-04T17:36:19.250Z,0.00
2018-02-04T17:38:50.045Z,-0.04
2018-02-04T17:41:20.837Z,-0.03
2018-02-04T17:43:51.621Z,-0.07
2018-02-04T17:46:22.428Z,-0.22
2018-02-04T17:48:53.206Z,-0.39
2018-02-04T17:51:24.003Z,-0.46
2018-02-04T17:53:56.789Z,-0.53
2018-02-04T17:56:27.666Z,-0.60
2018-02-04T17:58:58.450Z,-0.68
2018-02-04T18:01:29.252Z,-0.66
2018-02-04T18:04:00.088Z,-0.64
2018-02-04T18:06:30.876Z,-0.71
2018-02-04T18:09:01.618Z,-0.79
2018-02-04T18:11:32.431Z,-0.78
2018-02-04T18:14:04.198Z,-0.70
2018-02-04T18:16:35.020Z,-0.64
2018-02-04T18:19:05.773Z,-0.65
2018-02-04T18:21:36.579Z,-0.59
2018-02-04T18:24:07.349Z,-0.62
2018-02-04T18:26:38.229Z,-0.69
2018-02-04T18:29:09.028Z,-0.64
2018-02-04T18:31:39.868Z,-0.52
2018-02-04T18:34:10.660Z,-0.45
2018-02-04T18:36:41.479Z,-0.39
2018-02-04T18:39:12.236Z,-0.37
2018-02-04T18:41:43.092Z,-0.40
2018-02-04T18:44:13.867Z,-0.39
2018-02-04T18:46:44.724Z,-0.42
2018-02-04T18:49:15.524Z,-0.54
2018-02-04T18:51:46.329Z,-0.60
2018-02-04T18:54:17.124Z,-0.66
2018-02-04T18:56:47.904Z,-0.76
2018-02-04T18:59:18.668Z,-0.82
2018-02-04T19:01:49.432Z,-0.91
2018-02-04T19:04:20.222Z,-0.94
2018-02-04T19:06:51.043Z,-0.95
2018-02-04T19:09:22.864Z,-0.81
2018-02-04T19:11:53.742Z,-0.63
2018-02-04T19:14:24.540Z,-0.63
2018-02-04T19:16:55.310Z,-0.69
2018-02-04T19:19:26.072Z,-0.86
2018-02-04T19:22:03.876Z,-0.89
2018-02-04T19:24:34.684Z,-1.04
2018-02-04T19:27:05.423Z,-1.21
2018-02-04T19:29:36.240Z,-1.23
2018-02-04T19:32:07.025Z,-1.21
2018-02-04T19:34:41.369Z,-1.34
2018-02-04T19:37:12.175Z,-1.43
2018-02-04T19:39:42.943Z,-1.37
2018-02-04T19:42:13.730Z,-1.28
2018-02-04T19:44:44.516Z,-1.23
2018-02-04T19:47:15.313Z,-1.27
2018-02-04T19:49:46.096Z,-1.37
2018-02-04T19:52:17.963Z,-1.32
2018-02-04T19:54:48.740Z,-1.43
2018-02-04T19:57:19.556Z,-1.40
2018-02-04T19:59:50.320Z,-1.42
2018-02-04T20:02:21.127Z,-1.40
2018-02-04T20:04:51.876Z,-1.42
2018-02-04T20:07:22.700Z,-1.50
2018-02-04T20:09:53.571Z,-1.61
2018-02-04T20:12:24.355Z,-1.60
2018-02-04T20:14:58.356Z,-1.48
2018-02-04T20:17:29.166Z,-1.49
2018-02-04T20:19:59.924Z,-1.45
2018-02-04T20:22:30.697Z,-1.38
2018-02-04T20:25:01.444Z,-1.35
2018-02-04T20:27:32.244Z,-1.40
2018-02-04T20:30:03.108Z,-1.27
2018-02-04T20:32:53.162Z,-1.38
2018-02-04T20:35:23.962Z,-1.53
2018-02-04T20:37:54.815Z,-1.67
2018-02-04T20:40:25.623Z,-1.63
2018-02-04T20:43:14.912Z,-1.72
2018-02-04T20:45:45.692Z,-1.79
2018-02-04T20:48:23.305Z,-1.85
2018-02-04T20:50:54.077Z,-1.98
2018-02-04T20:53:24.882Z,-2.03
2018-02-04T20:55:55.703Z,-1.91
2018-02-04T20:58:26.566Z,-1.91
2018-02-04T21:00:57.443Z,-1.72
2018-02-04T21:03:28.217Z,-1.45
2018-02-04T21:05:59.051Z,-1.40
2018-02-04T21:08:29.868Z,-1.41
2018-02-04T21:11:00.666Z,-1.46
2018-02-04T21:13:33.472Z,-1.54
2018-02-04T21:16:04.244Z,-1.71
2018-02-04T21:18:35.057Z,-1.80
2018-02-04T21:21:05.793Z,-1.82
2018-02-04T21:23:36.572Z,-1.75
2018-02-04T21:26:07.361Z,-1.81
2018-02-04T21:28:38.195Z,-1.87
2018-02-04T21:31:09.013Z,-1.71
2018-02-04T21:33:39.833Z,-1.74
2018-02-04T21:36:10.749Z,-1.78
2018-02-04T21:38:41.512Z,-1.90
2018-02-04T21:41:12.319Z,-1.97
2018-02-04T21:43:44.105Z,-2.06
2018-02-04T21:46:15.000Z,-2.06
2018-02-04T21:48:45.771Z,-2.10
2018-02-04T21:51:16.580Z,-1.92
2018-02-04T21:53:48.387Z,-1.92
2018-02-04T21:56:19.277Z,-1.92
2018-02-04T21:58:50.071Z,-1.91
2018-02-04T22:01:20.884Z,-1.92
2018-02-04T22:03:51.777Z,-1.86
2018-02-04T22:06:22.528Z,-1.84
2018-02-04T22:08:53.336Z,-1.77
2018-02-04T22:11:24.125Z,-1.72
2018-02-04T22:13:54.943Z,-1.61
2018-02-04T22:16:25.764Z,-1.49
2018-02-04T22:19:10.072Z,-1.64
2018-02-04T22:21:40.871Z,-1.55
2018-02-04T22:24:11.673Z,-1.68
2018-02-04T22:26:42.476Z,-1.62
2018-02-04T22:29:13.290Z,-1.66
2018-02-04T22:31:44.070Z,-1.70
2018-02-04T22:34:14.885Z,-1.59
2018-02-04T22:36:45.651Z,-1.56
2018-02-04T22:39:16.440Z,-1.67
2018-02-04T22:41:47.180Z,-1.69
2018-02-04T22:44:17.939Z,-1.82
2018-02-04T22:46:48.708Z,-1.71
2018-02-04T22:49:19.493Z,-1.86
2018-02-04T22:51:50.305Z,-1.93
2018-02-04T22:54:21.124Z,-2.05
2018-02-04T22:56:51.894Z,-2.07
2018-02-04T22:59:22.749Z,-2.10
2018-02-04T23:01:53.540Z,-2.35
2018-02-04T23:04:24.308Z,-2.40
2018-02-04T23:06:55.065Z,-2.43
2018-02-04T23:09:25.956Z,-2.41
2018-02-04T23:11:56.693Z,-2.28
2018-02-04T23:14:27.452Z,-2.16
2018-02-04T23:16:58.211Z,-2.05
2018-02-04T23:19:29.005Z,-1.89
2018-02-04T23:21:59.744Z,-1.84
2018-02-04T23:24:30.592Z,-2.05
2018-02-04T23:27:01.368Z,-1.91
2018-02-04T23:29:32.144Z,-1.94
2018-02-04T23:32:02.901Z,-2.01
2018-02-04T23:34:33.680Z,-1.98
2018-02-04T23:37:04.435Z,-2.01
2018-02-04T23:39:35.205Z,-1.97
2018-02-04T23:42:05.967Z,-1.98
2018-02-04T23:44:36.708Z,-2.04
2018-02-04T23:47:07.432Z,-1.93
2018-02-04T23:49:38.180Z,-1.91
2018-02-04T23:52:08.936Z,-1.93
2018-02-04T23:54:39.696Z,-1.95
2018-02-04T23:57:10.436Z,-1.96
2018-02-04T23:59:41.223Z,-1.93
